createdAt,value
2019-03-12T00:00:03.055Z,99.90
2019-03-12T00:02:40.666Z,99.90
2019-03-12T00:05:18.132Z,99.90
2019-03-12T00:07:55.656Z,99.90
2019-03-12T00:10:39.667Z,99.90
2019-03-12T00:13:17.163Z,99.90
2019-03-12T00:15:54.640Z,99.90
2019-03-12T00:18:32.124Z,99.90
2019-03-12T00:21:17.112Z,99.90
2019-03-12T00:23:54.601Z,99.90
2019-03-12T00:26:32.102Z,99.90
2019-03-12T00:29:09.575Z,99.90
2019-03-12T00:31:47.189Z,99.90
2019-03-12T00:34:24.659Z,99.90
2019-03-12T00:37:02.160Z,99.90
2019-03-12T00:39:39.636Z,99.90
2019-03-12T00:42:17.263Z,99.90
2019-03-12T00:44:54.734Z,99.90
2019-03-12T00:47:32.255Z,99.90
2019-03-12T00:50:10.165Z,99.90
2019-03-12T00:52:47.666Z,99.90
2019-03-12T00:55:25.144Z,99.90
2019-03-12T00:58:02.643Z,99.90
2019-03-12T01:00:46.427Z,99.90
2019-03-12T01:03:23.937Z,99.90
2019-03-12T01:06:01.418Z,99.90
2019-03-12T01:08:38.956Z,99.90
2019-03-12T01:11:23.608Z,99.90
2019-03-12T01:14:01.095Z,99.90
2019-03-12T01:16:38.602Z,99.90
2019-03-12T01:19:16.087Z,99.90
2019-03-12T01:22:03.093Z,99.90
2019-03-12T01:24:40.556Z,99.90
2019-03-12T01:27:18.047Z,99.90
2019-03-12T01:29:55.527Z,99.90
2019-03-12T01:32:34.065Z,99.90
2019-03-12T01:35:11.559Z,99.90
2019-03-12T01:37:49.047Z,99.90
2019-03-12T01:40:26.621Z,99.90
2019-03-12T01:43:04.110Z,99.90
2019-03-12T01:45:41.586Z,99.90
2019-03-12T01:48:19.083Z,99.90
2019-03-12T01:51:03.543Z,99.90
2019-03-12T01:53:41.033Z,99.90
2019-03-12T01:56:18.512Z,99.90
2019-03-12T01:58:56.014Z,99.90
2019-03-12T02:01:53.072Z,99.90
2019-03-12T02:04:30.561Z,99.90
2019-03-12T02:07:08.095Z,99.90
2019-03-12T02:09:45.577Z,99.90
2019-03-12T02:12:23.178Z,99.90
2019-03-12T02:15:00.656Z,99.90
2019-03-12T02:17:38.131Z,99.90
2019-03-12T02:20:17.495Z,99.90
2019-03-12T02:22:55.000Z,99.90
2019-03-12T02:25:32.473Z,99.90
2019-03-12T02:28:09.967Z,99.90
2019-03-12T02:31:00.943Z,99.90
2019-03-12T02:33:38.433Z,99.90
2019-03-12T02:36:15.933Z,99.90
2019-03-12T02:38:53.441Z,99.90
2019-03-12T02:41:31.011Z,99.90
2019-03-12T02:44:08.494Z,99.90
2019-03-12T02:46:45.963Z,99.90
2019-03-12T02:49:23.472Z,99.90
2019-03-12T02:52:04.043Z,99.90
2019-03-12T02:54:41.666Z,99.90
2019-03-12T02:57:19.138Z,99.90
2019-03-12T02:59:57.033Z,99.90
2019-03-12T03:02:34.529Z,99.90
2019-03-12T03:05:12.026Z,99.90
2019-03-12T03:07:51.350Z,99.90
2019-03-12T03:10:28.942Z,99.90
2019-03-12T03:13:06.443Z,99.90
2019-03-12T03:15:45.455Z,99.90
2019-03-12T03:18:22.939Z,99.90
2019-03-12T03:21:06.795Z,99.90
2019-03-12T03:23:44.305Z,99.90
2019-03-12T03:26:21.769Z,99.90
2019-03-12T03:28:59.315Z,99.90
2019-03-12T03:31:37.805Z,99.90
2019-03-12T03:34:15.314Z,99.90
2019-03-12T03:36:52.769Z,99.90
2019-03-12T03:39:30.273Z,99.90
2019-03-12T03:42:07.861Z,99.90
2019-03-12T03:44:45.345Z,99.90
2019-03-12T03:47:22.822Z,99.90
2019-03-12T03:50:03.932Z,99.90
2019-03-12T03:52:41.447Z,99.90
2019-03-12T03:55:19.673Z,99.90
2019-03-12T03:57:57.158Z,99.90
2019-03-12T04:00:40.954Z,99.90
2019-03-12T04:03:18.457Z,99.90
2019-03-12T04:05:56.283Z,99.90
2019-03-12T04:08:33.813Z,99.90
2019-03-12T04:11:46.466Z,99.90
2019-03-12T04:14:23.952Z,99.90
2019-03-12T04:17:01.419Z,99.90
2019-03-12T04:19:58.805Z,99.90
2019-03-12T04:22:36.315Z,99.90
2019-03-12T04:25:13.790Z,99.90
2019-03-12T04:27:51.272Z,99.90
2019-03-12T04:30:28.860Z,99.90
2019-03-12T04:33:06.330Z,99.90
2019-03-12T04:35:43.827Z,99.90
2019-03-12T04:38:21.318Z,99.90
2019-03-12T04:40:58.913Z,99.90
2019-03-12T04:43:36.416Z,99.90
2019-03-12T04:46:13.901Z,99.90
2019-03-12T04:48:51.391Z,99.90
2019-03-12T04:51:28.992Z,99.90
2019-03-12T04:54:06.494Z,99.90
2019-03-12T04:56:43.953Z,99.90
2019-03-12T04:59:21.450Z,99.90
2019-03-12T05:01:58.931Z,99.90
2019-03-12T05:04:36.426Z,99.90
2019-03-12T05:07:13.922Z,99.90
2019-03-12T05:10:23.316Z,99.90
2019-03-12T05:13:00.810Z,99.90
2019-03-12T05:15:38.342Z,99.90
2019-03-12T05:18:15.836Z,99.90
2019-03-12T05:20:56.729Z,99.90
2019-03-12T05:23:34.226Z,99.90
2019-03-12T05:26:11.700Z,99.90
2019-03-12T05:28:49.198Z,99.90
2019-03-12T05:31:26.772Z,99.90
2019-03-12T05:34:04.282Z,99.90
2019-03-12T05:36:41.754Z,99.90
2019-03-12T05:39:25.850Z,99.90
2019-03-12T05:42:03.324Z,99.90
2019-03-12T05:44:40.799Z,99.90
2019-03-12T05:47:18.287Z,99.90
2019-03-12T05:49:55.896Z,99.90
2019-03-12T05:52:33.364Z,99.90
2019-03-12T05:55:10.928Z,99.90
2019-03-12T05:57:48.490Z,99.90
2019-03-12T06:00:36.108Z,99.90
2019-03-12T06:03:13.582Z,99.90
2019-03-12T06:05:51.112Z,99.90
2019-03-12T06:08:28.571Z,99.90
2019-03-12T06:11:06.165Z,99.90
2019-03-12T06:13:43.642Z,99.90
2019-03-12T06:16:21.182Z,99.90
2019-03-12T06:18:58.752Z,99.90
2019-03-12T06:21:36.175Z,99.90
2019-03-12T06:24:13.679Z,99.90
2019-03-12T06:26:51.137Z,99.90
2019-03-12T06:29:38.139Z,99.90
2019-03-12T06:32:50.587Z,99.90
2019-03-12T06:35:39.711Z,99.90
2019-03-12T06:38:37.433Z,99.90
2019-03-12T06:41:34.094Z,99.90
2019-03-12T06:44:19.778Z,99.90
2019-03-12T06:47:17.946Z,99.90
2019-03-12T06:50:36.872Z,99.90
2019-03-12T06:53:32.982Z,99.90
2019-03-12T06:56:29.131Z,99.90
2019-03-12T06:59:44.445Z,99.90
2019-03-12T07:02:33.589Z,99.90
2019-03-12T07:05:21.372Z,99.90
2019-03-12T07:08:30.463Z,99.90
2019-03-12T07:11:26.553Z,99.90
2019-03-12T07:14:19.028Z,99.90
2019-03-12T07:17:00.345Z,99.90
2019-03-12T07:19:45.189Z,99.90
2019-03-12T07:22:34.953Z,99.90
2019-03-12T07:25:50.504Z,99.90
2019-03-12T07:28:49.834Z,99.90
2019-03-12T07:31:24.268Z,99.90
2019-03-12T07:34:37.186Z,99.90
2019-03-12T07:37:36.153Z,99.90
2019-03-12T07:40:34.076Z,99.90
2019-03-12T07:43:21.068Z,99.90
2019-03-12T07:46:14.142Z,99.60
2019-03-12T07:49:19.603Z,99.40
2019-03-12T07:52:04.652Z,99.40
2019-03-12T07:55:07.679Z,99.10
2019-03-12T07:58:06.751Z,98.70
2019-03-12T08:01:16.019Z,99.20
2019-03-12T08:04:24.633Z,99.90
2019-03-12T08:07:13.772Z,99.90
2019-03-12T08:10:06.443Z,99.90
2019-03-12T08:12:58.439Z,99.90
2019-03-12T08:15:54.278Z,99.90
2019-03-12T08:19:09.809Z,99.90
2019-03-12T08:22:00.144Z,99.90
2019-03-12T08:24:56.267Z,99.90
2019-03-12T08:28:08.705Z,99.90
2019-03-12T08:30:52.724Z,98.60
2019-03-12T08:33:52.076Z,98.80
2019-03-12T08:36:52.570Z,96.90
2019-03-12T08:39:48.789Z,95.20
2019-03-12T08:42:57.848Z,94.90
2019-03-12T08:45:53.635Z,97.00
2019-03-12T08:48:40.756Z,93.20
2019-03-12T08:51:29.006Z,92.50
2019-03-12T08:54:13.438Z,91.30
2019-03-12T08:57:16.015Z,90.80
2019-03-12T09:00:15.733Z,92.00
2019-03-12T09:03:07.086Z,91.30
2019-03-12T09:05:53.632Z,91.30
2019-03-12T09:08:53.887Z,90.70
2019-03-12T09:11:49.610Z,90.30
2019-03-12T09:14:45.413Z,90.70
2019-03-12T09:17:33.373Z,91.00
2019-03-12T09:20:28.237Z,90.80
2019-03-12T09:23:27.367Z,88.20
2019-03-12T09:26:23.459Z,86.20
2019-03-12T09:29:26.496Z,87.00
2019-03-12T09:32:25.979Z,87.30
2019-03-12T09:35:29.982Z,84.50
2019-03-12T09:38:26.078Z,85.30
2019-03-12T09:41:28.256Z,84.50
2019-03-12T09:44:15.314Z,82.60
2019-03-12T09:47:10.694Z,83.80
2019-03-12T09:50:14.422Z,83.40
2019-03-12T09:53:13.279Z,81.30
2019-03-12T09:56:09.377Z,82.10
2019-03-12T09:58:59.532Z,81.30
2019-03-12T10:01:59.388Z,81.40
2019-03-12T10:04:52.659Z,79.20
2019-03-12T10:07:48.758Z,78.70
2019-03-12T10:10:50.812Z,79.60
2019-03-12T10:13:59.117Z,78.90
2019-03-12T10:17:07.896Z,79.60
2019-03-12T10:20:04.056Z,79.10
2019-03-12T10:23:06.330Z,77.80
2019-03-12T10:26:09.384Z,78.80
2019-03-12T10:29:11.915Z,71.90
2019-03-12T10:31:59.006Z,71.50
2019-03-12T10:34:43.902Z,72.90
2019-03-12T10:37:49.740Z,71.50
2019-03-12T10:40:45.832Z,74.10
2019-03-12T10:43:45.151Z,73.30
2019-03-12T10:46:54.295Z,74.00
2019-03-12T10:49:37.360Z,74.40
2019-03-12T10:52:09.287Z,74.60
2019-03-12T10:54:46.794Z,72.20
2019-03-12T10:57:24.272Z,73.00
2019-03-12T11:00:01.884Z,73.40
2019-03-12T11:02:40.662Z,71.80
2019-03-12T11:05:16.859Z,70.70
2019-03-12T11:08:06.786Z,67.90
2019-03-12T11:10:42.110Z,66.30
2019-03-12T11:13:19.510Z,66.30
2019-03-12T11:15:57.000Z,66.50
2019-03-12T11:18:44.388Z,66.10
2019-03-12T11:21:21.871Z,66.00
2019-03-12T11:23:59.360Z,67.10
2019-03-12T11:26:36.839Z,65.40
2019-03-12T11:29:17.527Z,65.60
2019-03-12T11:31:55.013Z,61.40
2019-03-12T11:34:32.498Z,60.40
2019-03-12T11:37:09.996Z,59.90
2019-03-12T11:39:47.635Z,58.90
2019-03-12T11:42:25.130Z,58.80
2019-03-12T11:45:02.629Z,58.40
2019-03-12T11:47:40.087Z,59.80
2019-03-12T11:50:22.231Z,57.70
2019-03-12T11:53:00.547Z,52.50
2019-03-12T11:55:37.039Z,49.40
2019-03-12T11:58:14.673Z,49.20
2019-03-12T12:00:58.283Z,48.80
2019-03-12T12:03:35.770Z,45.40
2019-03-12T12:06:13.295Z,46.00
2019-03-12T12:08:52.228Z,46.90
2019-03-12T12:11:29.733Z,44.50
2019-03-12T12:14:07.242Z,41.00
2019-03-12T12:16:44.744Z,43.10
2019-03-12T12:19:22.340Z,44.30
2019-03-12T12:21:59.844Z,46.20
2019-03-12T12:24:37.337Z,47.80
2019-03-12T12:27:14.836Z,46.90
2019-03-12T12:29:52.480Z,46.40
2019-03-12T12:32:29.971Z,47.40
2019-03-12T12:35:08.381Z,48.10
2019-03-12T12:38:14.311Z,49.20
2019-03-12T12:40:51.799Z,50.00
2019-03-12T12:43:29.272Z,50.00
2019-03-12T12:46:06.752Z,47.20
2019-03-12T12:48:44.379Z,46.70
2019-03-12T12:51:21.883Z,46.00
2019-03-12T12:53:59.373Z,45.40
2019-03-12T12:56:36.880Z,44.90
2019-03-12T12:59:17.906Z,46.10
2019-03-12T13:01:55.411Z,46.00
2019-03-12T13:04:32.878Z,47.80
2019-03-12T13:07:10.397Z,45.30
2019-03-12T13:10:04.206Z,44.90
2019-03-12T13:12:41.730Z,45.10
2019-03-12T13:15:19.103Z,45.40
2019-03-12T13:18:09.861Z,48.30
2019-03-12T13:20:47.329Z,48.70
2019-03-12T13:23:24.824Z,49.30
2019-03-12T13:26:02.316Z,49.20
2019-03-12T13:28:39.897Z,49.60
2019-03-12T13:31:17.373Z,46.20
2019-03-12T13:33:54.877Z,41.50
2019-03-12T13:36:32.349Z,40.60
2019-03-12T13:39:23.118Z,37.90
2019-03-12T13:42:00.444Z,39.10
2019-03-12T13:44:37.960Z,38.80
2019-03-12T13:47:18.724Z,38.00
2019-03-12T13:49:56.301Z,38.90
2019-03-12T13:52:33.711Z,38.70
2019-03-12T13:55:11.602Z,40.50
2019-03-12T13:57:49.243Z,42.10
2019-03-12T14:00:26.749Z,42.00
2019-03-12T14:03:04.291Z,40.70
2019-03-12T14:05:41.794Z,39.10
2019-03-12T14:08:32.654Z,35.70
2019-03-12T14:11:10.167Z,35.30
2019-03-12T14:13:47.671Z,34.10
2019-03-12T14:16:27.266Z,35.60
2019-03-12T14:19:04.847Z,38.90
2019-03-12T14:21:45.313Z,40.80
2019-03-12T14:24:22.817Z,40.40
2019-03-12T14:27:00.301Z,38.20
2019-03-12T14:29:37.845Z,36.70
2019-03-12T14:32:15.355Z,37.00
2019-03-12T14:34:52.848Z,38.80
2019-03-12T14:37:36.058Z,38.80
2019-03-12T14:40:12.051Z,37.10
2019-03-12T14:42:49.572Z,36.80
2019-03-12T14:45:31.236Z,35.90
2019-03-12T14:48:47.954Z,38.00
2019-03-12T14:52:04.385Z,40.10
2019-03-12T14:54:41.868Z,39.60
2019-03-12T14:57:19.518Z,41.80
2019-03-12T14:59:57.077Z,42.50
2019-03-12T15:02:34.550Z,43.40
2019-03-12T15:05:12.076Z,45.40
2019-03-12T15:07:59.452Z,46.30
2019-03-12T15:10:36.955Z,48.00
2019-03-12T15:13:14.446Z,48.40
2019-03-12T15:15:51.963Z,48.60
2019-03-12T15:18:36.451Z,49.30
2019-03-12T15:21:13.987Z,50.00
2019-03-12T15:23:51.497Z,50.70
2019-03-12T15:26:29.009Z,51.30
2019-03-12T15:29:06.579Z,51.20
2019-03-12T15:31:44.092Z,51.50
2019-03-12T15:34:21.586Z,51.70
2019-03-12T15:37:02.845Z,51.60
2019-03-12T15:39:40.324Z,51.80
2019-03-12T15:42:17.819Z,51.90
2019-03-12T15:44:55.335Z,51.80
2019-03-12T15:47:39.120Z,50.70
2019-03-12T15:50:18.929Z,50.50
2019-03-12T15:52:54.240Z,51.80
2019-03-12T15:55:31.700Z,53.60
2019-03-12T15:58:18.771Z,55.20
2019-03-12T16:00:56.241Z,54.70
2019-03-12T16:03:33.749Z,54.60
2019-03-12T16:06:11.247Z,54.90
2019-03-12T16:08:48.838Z,55.10
2019-03-12T16:11:26.328Z,54.00
2019-03-12T16:14:03.885Z,54.90
2019-03-12T16:16:41.364Z,56.00
2019-03-12T16:19:18.886Z,57.10
2019-03-12T16:21:56.381Z,58.10
2019-03-12T16:24:33.893Z,58.10
2019-03-12T16:27:15.650Z,58.30
2019-03-12T16:29:53.146Z,58.50
2019-03-12T16:32:30.610Z,58.70
2019-03-12T16:35:08.160Z,59.10
2019-03-12T16:37:46.757Z,58.70
2019-03-12T16:40:24.234Z,58.30
2019-03-12T16:43:01.722Z,58.60
2019-03-12T16:45:39.208Z,57.80
2019-03-12T16:48:38.806Z,57.70
2019-03-12T16:51:16.118Z,58.10
2019-03-12T16:53:53.634Z,58.50
2019-03-12T16:56:44.144Z,59.20
2019-03-12T16:59:09.032Z,60.00
2019-03-12T17:01:46.112Z,61.70
2019-03-12T17:04:23.644Z,61.50
2019-03-12T17:07:11.220Z,62.50
2019-03-12T17:09:48.749Z,63.20
2019-03-12T17:12:26.214Z,63.90
2019-03-12T17:15:03.720Z,64.20
2019-03-12T17:17:54.789Z,64.60
2019-03-12T17:20:32.279Z,65.20
2019-03-12T17:23:09.754Z,65.30
2019-03-12T17:25:47.240Z,65.60
2019-03-12T17:28:31.516Z,65.50
2019-03-12T17:31:08.983Z,65.80
2019-03-12T17:33:46.482Z,65.50
2019-03-12T17:36:23.948Z,64.70
2019-03-12T17:39:01.435Z,65.40
2019-03-12T17:41:38.894Z,65.00
2019-03-12T17:44:16.411Z,65.20
2019-03-12T17:46:57.525Z,65.30
2019-03-12T17:49:35.026Z,65.20
2019-03-12T17:52:12.480Z,65.80
2019-03-12T17:54:49.989Z,65.20
2019-03-12T17:57:33.654Z,65.60
2019-03-12T18:00:17.866Z,65.50
2019-03-12T18:02:55.350Z,65.50
2019-03-12T18:05:32.837Z,65.30
2019-03-12T18:08:23.658Z,65.20
2019-03-12T18:11:01.148Z,65.70
2019-03-12T18:13:38.626Z,65.20
2019-03-12T18:16:19.340Z,64.80
2019-03-12T18:18:56.844Z,64.60
2019-03-12T18:21:34.300Z,65.60
2019-03-12T18:24:11.817Z,65.70
2019-03-12T18:26:49.399Z,65.40
2019-03-12T18:29:26.921Z,65.50
2019-03-12T18:32:04.387Z,65.30
2019-03-12T18:34:41.895Z,65.40
2019-03-12T18:37:22.533Z,65.20
2019-03-12T18:40:00.011Z,65.20
2019-03-12T18:42:37.496Z,65.30
2019-03-12T18:45:18.616Z,65.30
2019-03-12T18:48:02.738Z,65.60
2019-03-12T18:50:40.237Z,65.90
2019-03-12T18:53:17.715Z,65.60
2019-03-12T18:56:13.826Z,64.70
2019-03-12T18:58:51.306Z,63.80
2019-03-12T19:01:28.819Z,63.70
2019-03-12T19:04:06.362Z,63.40
2019-03-12T19:06:51.185Z,62.50
2019-03-12T19:09:28.704Z,63.00
2019-03-12T19:12:06.162Z,62.40
2019-03-12T19:14:43.669Z,62.30
2019-03-12T19:17:22.163Z,62.10
2019-03-12T19:19:59.659Z,61.80
2019-03-12T19:22:37.112Z,61.70
2019-03-12T19:25:14.611Z,61.10
2019-03-12T19:28:00.222Z,61.40
2019-03-12T19:30:35.759Z,60.90
2019-03-12T19:33:15.088Z,60.40
2019-03-12T19:35:52.581Z,60.10
2019-03-12T19:38:30.047Z,59.50
2019-03-12T19:41:07.539Z,59.40
2019-03-12T19:43:45.046Z,59.40
2019-03-12T19:46:29.350Z,59.00
2019-03-12T19:49:06.807Z,58.90
2019-03-12T19:51:44.296Z,59.50
2019-03-12T19:54:21.770Z,60.00
2019-03-12T19:56:59.323Z,60.10
2019-03-12T19:59:36.837Z,59.90
2019-03-12T20:02:16.322Z,59.80
2019-03-12T20:04:51.781Z,59.20
2019-03-12T20:07:29.339Z,59.20
2019-03-12T20:10:51.773Z,58.50
2019-03-12T20:14:21.501Z,58.50
2019-03-12T20:18:04.115Z,58.10
2019-03-12T20:21:41.327Z,58.80
2019-03-12T20:25:24.858Z,58.30
2019-03-12T20:29:14.502Z,58.70
2019-03-12T20:32:48.417Z,58.50
2019-03-12T20:36:28.087Z,57.50
2019-03-12T20:39:55.834Z,57.90
2019-03-12T20:43:29.029Z,58.10
2019-03-12T20:47:09.849Z,57.50
2019-03-12T20:50:46.972Z,57.60
2019-03-12T20:54:37.474Z,58.50
2019-03-12T20:58:10.899Z,58.10
2019-03-12T21:02:01.097Z,57.80
2019-03-12T21:05:44.502Z,58.50
2019-03-12T21:09:40.696Z,57.50
2019-03-12T21:13:16.994Z,56.70
2019-03-12T21:17:11.478Z,56.40
2019-03-12T21:20:54.376Z,55.90
2019-03-12T21:24:33.639Z,56.60
2019-03-12T21:28:36.423Z,56.70
2019-03-12T21:31:15.062Z,56.70
2019-03-12T21:33:51.452Z,56.50
2019-03-12T21:36:42.141Z,56.70
2019-03-12T21:39:19.616Z,56.70
2019-03-12T21:41:57.109Z,56.80
2019-03-12T21:44:34.622Z,56.70
2019-03-12T21:47:12.228Z,56.50
2019-03-12T21:49:49.696Z,56.20
2019-03-12T21:52:27.206Z,56.50
2019-03-12T21:55:04.688Z,56.50
2019-03-12T21:57:42.266Z,56.80
2019-03-12T22:00:20.100Z,56.90
2019-03-12T22:02:57.613Z,56.80
2019-03-12T22:05:44.755Z,56.50
2019-03-12T22:08:25.114Z,57.20
2019-03-12T22:10:59.732Z,55.60
2019-03-12T22:13:37.254Z,56.40
2019-03-12T22:16:14.836Z,56.60
2019-03-12T22:18:52.326Z,56.70
2019-03-12T22:21:48.464Z,55.40
2019-03-12T22:24:25.925Z,55.40
2019-03-12T22:27:09.907Z,54.80
2019-03-12T22:29:47.376Z,54.50
2019-03-12T22:32:24.868Z,54.10
2019-03-12T22:35:02.336Z,54.30
2019-03-12T22:37:39.834Z,53.90
2019-03-12T22:40:17.310Z,53.80
2019-03-12T22:42:54.825Z,54.30
2019-03-12T22:45:48.873Z,54.10
2019-03-12T22:48:26.368Z,54.20
2019-03-12T22:51:03.854Z,54.50
2019-03-12T22:53:41.410Z,54.60
2019-03-12T22:56:18.976Z,53.40
2019-03-12T22:58:56.467Z,53.00
2019-03-12T23:01:33.935Z,52.80
2019-03-12T23:04:11.419Z,53.10
2019-03-12T23:06:50.647Z,52.20
2019-03-12T23:09:28.138Z,52.20
2019-03-12T23:12:05.916Z,52.20
2019-03-12T23:14:43.410Z,52.20
2019-03-12T23:17:24.168Z,52.20
2019-03-12T23:20:01.641Z,51.70
2019-03-12T23:22:39.146Z,51.70
2019-03-12T23:25:29.921Z,51.50
2019-03-12T23:28:07.416Z,51.70
2019-03-12T23:30:45.231Z,51.60
2019-03-12T23:33:22.797Z,51.70
2019-03-12T23:36:00.668Z,51.60
2019-03-12T23:38:38.156Z,51.80
2019-03-12T23:41:15.626Z,52.60
2019-03-12T23:43:53.157Z,53.50
2019-03-12T23:46:33.823Z,53.10
2019-03-12T23:49:11.314Z,52.30
2019-03-12T23:51:48.784Z,52.00
2019-03-12T23:54:26.277Z,52.00
2019-03-12T23:57:09.846Z,51.10
2019-03-12T23:59:47.359Z,50.30
